sensor_id;sensor_type;location;lat;lon;timestamp;pressure;altitude;pressure_sealevel;temperature;humidity
23172;BME280;11754;42.664;23.594;2022-11-23T00:00:26;94151.25;;;8.47;73.28
23172;BME280;11754;42.664;23.594;2022-11-23T00:02:58;94129.28;;;8.48;72.56
23172;BME280;11754;42.664;23.594;2022-11-23T00:05:25;94126.75;;;8.61;72.74
23172;BME280;11754;42.664;23.594;2022-11-23T00:07:51;94129.47;;;8.68;72.78
23172;BME280;11754;42.664;23.594;2022-11-23T00:10:17;94127.91;;;8.73;71.90
23172;BME280;11754;42.664;23.594;2022-11-23T00:12:42;94128.50;;;8.75;71.68
23172;BME280;11754;42.664;23.594;2022-11-23T00:15:08;94135.91;;;8.86;71.90
23172;BME280;11754;42.664;23.594;2022-11-23T00:17:36;94128.78;;;8.80;71.98
23172;BME280;11754;42.664;23.594;2022-11-23T00:20:02;94126.97;;;8.81;71.84
23172;BME280;11754;42.664;23.594;2022-11-23T00:22:27;94147.28;;;8.94;71.40
23172;BME280;11754;42.664;23.594;2022-11-23T00:24:52;94138.78;;;8.92;71.49
23172;BME280;11754;42.664;23.594;2022-11-23T00:27:18;94155.09;;;8.87;71.24
23172;BME280;11754;42.664;23.594;2022-11-23T00:29:43;94150.06;;;8.85;71.36
23172;BME280;11754;42.664;23.594;2022-11-23T00:32:08;94162.69;;;8.97;70.89
23172;BME280;11754;42.664;23.594;2022-11-23T00:34:34;94160.06;;;8.97;71.10
23172;BME280;11754;42.664;23.594;2022-11-23T00:36:59;94148.53;;;8.98;71.07
23172;BME280;11754;42.664;23.594;2022-11-23T00:39:24;94170.44;;;9.05;70.62
23172;BME280;11754;42.664;23.594;2022-11-23T00:41:50;94151.66;;;8.86;71.26
23172;BME280;11754;42.664;23.594;2022-11-23T00:44:16;94150.56;;;8.96;71.06
23172;BME280;11754;42.664;23.594;2022-11-23T00:46:42;94152.44;;;9.02;71.01
23172;BME280;11754;42.664;23.594;2022-11-23T00:49:07;94144.06;;;8.92;70.66
23172;BME280;11754;42.664;23.594;2022-11-23T00:51:35;94151.38;;;8.96;71.46
23172;BME280;11754;42.664;23.594;2022-11-23T00:54:04;94140.03;;;8.96;71.18
23172;BME280;11754;42.664;23.594;2022-11-23T00:56:30;94169.97;;;8.95;71.53
23172;BME280;11754;42.664;23.594;2022-11-23T00:58:57;94167.22;;;8.81;71.80
23172;BME280;11754;42.664;23.594;2022-11-23T01:01:25;94164.06;;;8.71;72.63
23172;BME280;11754;42.664;23.594;2022-11-23T01:03:56;94163.19;;;8.64;73.75
23172;BME280;11754;42.664;23.594;2022-11-23T01:06:27;94165.44;;;8.67;74.14
23172;BME280;11754;42.664;23.594;2022-11-23T01:09:02;94171.16;;;8.71;74.10
23172;BME280;11754;42.664;23.594;2022-11-23T01:11:30;94167.81;;;8.83;73.95
23172;BME280;11754;42.664;23.594;2022-11-23T01:13:56;94160.19;;;8.88;73.00
23172;BME280;11754;42.664;23.594;2022-11-23T01:16:29;94169.56;;;8.98;73.33
23172;BME280;11754;42.664;23.594;2022-11-23T01:19:00;94152.19;;;8.97;73.05
23172;BME280;11754;42.664;23.594;2022-11-23T01:21:27;94152.25;;;9.03;73.32
23172;BME280;11754;42.664;23.594;2022-11-23T01:23:53;94155.81;;;9.17;72.86
23172;BME280;11754;42.664;23.594;2022-11-23T01:26:19;94163.69;;;9.17;72.92
23172;BME280;11754;42.664;23.594;2022-11-23T01:28:44;94175.22;;;9.16;72.61
23172;BME280;11754;42.664;23.594;2022-11-23T01:31:13;94156.81;;;9.16;72.70
23172;BME280;11754;42.664;23.594;2022-11-23T01:33:39;94179.97;;;9.27;72.93
23172;BME280;11754;42.664;23.594;2022-11-23T01:36:12;94171.94;;;9.35;72.88
23172;BME280;11754;42.664;23.594;2022-11-23T01:38:38;94161.41;;;9.35;72.89
23172;BME280;11754;42.664;23.594;2022-11-23T01:41:05;94143.81;;;9.36;73.18
23172;BME280;11754;42.664;23.594;2022-11-23T01:43:31;94144.63;;;9.36;73.57
23172;BME280;11754;42.664;23.594;2022-11-23T01:46:00;94147.25;;;9.36;73.03
23172;BME280;11754;42.664;23.594;2022-11-23T01:51:03;94150.31;;;9.40;73.33
23172;BME280;11754;42.664;23.594;2022-11-23T01:53:30;94151.81;;;9.49;73.19
23172;BME280;11754;42.664;23.594;2022-11-23T01:55:59;94161.75;;;9.54;73.03
23172;BME280;11754;42.664;23.594;2022-11-23T01:58:27;94155.47;;;9.55;72.85
23172;BME280;11754;42.664;23.594;2022-11-23T02:00:53;94144.78;;;9.56;72.78
23172;BME280;11754;42.664;23.594;2022-11-23T02:03:18;94159.97;;;9.61;72.65
23172;BME280;11754;42.664;23.594;2022-11-23T02:05:47;94159.53;;;9.57;72.72
23172;BME280;11754;42.664;23.594;2022-11-23T02:08:15;94167.97;;;9.46;73.15
23172;BME280;11754;42.664;23.594;2022-11-23T02:10:41;94167.09;;;9.39;74.05
23172;BME280;11754;42.664;23.594;2022-11-23T02:13:09;94154.84;;;9.25;73.97
23172;BME280;11754;42.664;23.594;2022-11-23T02:15:35;94153.69;;;9.06;75.02
23172;BME280;11754;42.664;23.594;2022-11-23T02:18:03;94158.44;;;8.74;77.06
23172;BME280;11754;42.664;23.594;2022-11-23T02:20:30;94169.56;;;8.55;77.60
23172;BME280;11754;42.664;23.594;2022-11-23T02:23:24;94168.16;;;8.37;78.78
23172;BME280;11754;42.664;23.594;2022-11-23T02:26:01;94182.16;;;8.59;78.67
23172;BME280;11754;42.664;23.594;2022-11-23T02:28:33;94160.22;;;8.52;78.71
23172;BME280;11754;42.664;23.594;2022-11-23T02:31:00;94130.25;;;8.47;79.36
23172;BME280;11754;42.664;23.594;2022-11-23T02:33:27;94155.22;;;8.57;79.73
23172;BME280;11754;42.664;23.594;2022-11-23T02:35:55;94157.19;;;8.70;79.47
23172;BME280;11754;42.664;23.594;2022-11-23T02:38:22;94128.13;;;8.57;79.81
23172;BME280;11754;42.664;23.594;2022-11-23T02:40:49;94116.66;;;8.43;80.13
23172;BME280;11754;42.664;23.594;2022-11-23T02:43:14;94119.50;;;8.41;80.87
23172;BME280;11754;42.664;23.594;2022-11-23T02:45:54;94111.16;;;8.38;81.03
23172;BME280;11754;42.664;23.594;2022-11-23T02:48:20;94114.03;;;8.43;81.38
23172;BME280;11754;42.664;23.594;2022-11-23T02:50:46;94112.84;;;8.46;81.86
23172;BME280;11754;42.664;23.594;2022-11-23T02:53:12;94080.91;;;8.27;82.06
23172;BME280;11754;42.664;23.594;2022-11-23T02:55:38;94108.84;;;8.50;82.13
23172;BME280;11754;42.664;23.594;2022-11-23T02:58:04;94094.72;;;8.51;82.53
23172;BME280;11754;42.664;23.594;2022-11-23T03:00:31;94101.13;;;8.63;82.37
23172;BME280;11754;42.664;23.594;2022-11-23T03:02:57;94096.47;;;8.65;82.28
23172;BME280;11754;42.664;23.594;2022-11-23T03:05:24;94097.53;;;8.71;82.74
23172;BME280;11754;42.664;23.594;2022-11-23T03:07:49;94100.25;;;8.77;82.49
23172;BME280;11754;42.664;23.594;2022-11-23T03:10:15;94102.06;;;8.77;82.27
23172;BME280;11754;42.664;23.594;2022-11-23T03:12:40;94085.28;;;8.78;83.02
23172;BME280;11754;42.664;23.594;2022-11-23T03:15:06;94082.34;;;8.66;82.44
23172;BME280;11754;42.664;23.594;2022-11-23T03:17:31;94090.81;;;8.89;82.63
23172;BME280;11754;42.664;23.594;2022-11-23T03:19:57;94080.56;;;8.95;81.67
23172;BME280;11754;42.664;23.594;2022-11-23T03:22:22;94078.00;;;8.80;82.27
23172;BME280;11754;42.664;23.594;2022-11-23T03:24:47;94064.81;;;8.73;82.88
23172;BME280;11754;42.664;23.594;2022-11-23T03:27:13;94079.56;;;8.74;83.26
23172;BME280;11754;42.664;23.594;2022-11-23T03:29:38;94063.94;;;8.87;82.34
23172;BME280;11754;42.664;23.594;2022-11-23T03:32:04;94070.44;;;8.70;83.29
23172;BME280;11754;42.664;23.594;2022-11-23T03:34:29;94061.69;;;8.63;83.71
23172;BME280;11754;42.664;23.594;2022-11-23T03:36:54;94076.44;;;8.64;83.81
23172;BME280;11754;42.664;23.594;2022-11-23T03:39:20;94057.47;;;8.47;84.15
23172;BME280;11754;42.664;23.594;2022-11-23T03:41:45;94066.56;;;8.45;84.77
23172;BME280;11754;42.664;23.594;2022-11-23T03:44:11;94050.88;;;8.36;85.59
23172;BME280;11754;42.664;23.594;2022-11-23T03:46:36;94063.94;;;8.45;85.35
23172;BME280;11754;42.664;23.594;2022-11-23T03:49:02;94057.44;;;8.40;85.20
23172;BME280;11754;42.664;23.594;2022-11-23T03:51:27;94062.31;;;8.43;84.83
23172;BME280;11754;42.664;23.594;2022-11-23T03:53:53;94064.31;;;8.41;84.76
23172;BME280;11754;42.664;23.594;2022-11-23T03:56:18;94068.94;;;8.39;84.90
23172;BME280;11754;42.664;23.594;2022-11-23T03:58:44;94088.16;;;8.61;85.01
23172;BME280;11754;42.664;23.594;2022-11-23T04:01:09;94079.44;;;8.61;84.68
23172;BME280;11754;42.664;23.594;2022-11-23T04:03:35;94069.31;;;8.58;84.96
23172;BME280;11754;42.664;23.594;2022-11-23T04:06:00;94062.19;;;8.73;84.89
23172;BME280;11754;42.664;23.594;2022-11-23T04:08:25;94051.69;;;8.73;84.37
23172;BME280;11754;42.664;23.594;2022-11-23T04:10:51;94058.03;;;8.85;83.92
23172;BME280;11754;42.664;23.594;2022-11-23T04:13:20;94060.66;;;8.85;83.74
23172;BME280;11754;42.664;23.594;2022-11-23T04:15:45;94039.13;;;8.75;84.60
23172;BME280;11754;42.664;23.594;2022-11-23T04:18:10;94041.53;;;8.70;84.64
23172;BME280;11754;42.664;23.594;2022-11-23T04:20:36;94047.53;;;8.64;85.60
23172;BME280;11754;42.664;23.594;2022-11-23T04:23:01;94048.28;;;8.58;87.32
23172;BME280;11754;42.664;23.594;2022-11-23T04:25:26;94041.78;;;8.54;88.99
23172;BME280;11754;42.664;23.594;2022-11-23T04:27:52;94047.81;;;8.48;90.31
23172;BME280;11754;42.664;23.594;2022-11-23T04:30:17;94051.06;;;8.50;91.03
23172;BME280;11754;42.664;23.594;2022-11-23T04:32:44;94037.69;;;8.45;91.18
23172;BME280;11754;42.664;23.594;2022-11-23T04:35:10;94044.19;;;8.49;91.72
23172;BME280;11754;42.664;23.594;2022-11-23T04:37:35;94042.56;;;8.48;92.25
23172;BME280;11754;42.664;23.594;2022-11-23T04:40:00;94049.44;;;8.49;92.39
23172;BME280;11754;42.664;23.594;2022-11-23T04:42:26;94046.16;;;8.47;92.30
23172;BME280;11754;42.664;23.594;2022-11-23T04:44:51;94023.75;;;8.51;92.73
23172;BME280;11754;42.664;23.594;2022-11-23T04:47:16;94041.41;;;8.57;92.39
23172;BME280;11754;42.664;23.594;2022-11-23T04:49:42;94045.06;;;8.56;92.44
23172;BME280;11754;42.664;23.594;2022-11-23T04:52:07;94047.25;;;8.52;92.57
23172;BME280;11754;42.664;23.594;2022-11-23T04:54:33;94049.50;;;8.55;92.19
23172;BME280;11754;42.664;23.594;2022-11-23T04:56:58;94063.25;;;8.57;91.66
23172;BME280;11754;42.664;23.594;2022-11-23T04:59:24;94076.59;;;8.56;91.56
23172;BME280;11754;42.664;23.594;2022-11-23T05:01:49;94069.72;;;8.55;91.15
23172;BME280;11754;42.664;23.594;2022-11-23T05:04:17;94050.97;;;8.43;90.19
23172;BME280;11754;42.664;23.594;2022-11-23T05:06:42;94075.06;;;8.47;90.17
23172;BME280;11754;42.664;23.594;2022-11-23T05:09:07;94056.81;;;8.38;90.49
23172;BME280;11754;42.664;23.594;2022-11-23T05:11:33;94068.94;;;8.61;90.42
23172;BME280;11754;42.664;23.594;2022-11-23T05:13:58;94071.47;;;8.69;90.36
23172;BME280;11754;42.664;23.594;2022-11-23T05:16:23;94067.81;;;8.70;89.84
23172;BME280;11754;42.664;23.594;2022-11-23T05:18:49;94077.97;;;8.73;89.77
23172;BME280;11754;42.664;23.594;2022-11-23T05:21:14;94075.72;;;8.70;89.68
23172;BME280;11754;42.664;23.594;2022-11-23T05:23:39;94068.63;;;8.71;89.56
23172;BME280;11754;42.664;23.594;2022-11-23T05:26:05;94076.31;;;8.72;89.45
23172;BME280;11754;42.664;23.594;2022-11-23T05:28:30;94078.34;;;8.70;89.41
23172;BME280;11754;42.664;23.594;2022-11-23T05:30:55;94068.13;;;8.60;89.73
23172;BME280;11754;42.664;23.594;2022-11-23T05:33:21;94069.75;;;8.61;89.56
23172;BME280;11754;42.664;23.594;2022-11-23T05:35:46;94064.50;;;8.61;89.64
23172;BME280;11754;42.664;23.594;2022-11-23T05:38:11;94072.78;;;8.58;89.89
23172;BME280;11754;42.664;23.594;2022-11-23T05:40:37;94077.84;;;8.60;90.10
23172;BME280;11754;42.664;23.594;2022-11-23T05:43:03;94061.19;;;8.53;90.07
23172;BME280;11754;42.664;23.594;2022-11-23T05:45:28;94074.03;;;8.62;90.63
23172;BME280;11754;42.664;23.594;2022-11-23T05:47:56;94074.38;;;8.81;90.50
23172;BME280;11754;42.664;23.594;2022-11-23T05:50:24;94054.59;;;8.85;89.82
23172;BME280;11754;42.664;23.594;2022-11-23T05:52:50;94060.03;;;9.11;89.45
23172;BME280;11754;42.664;23.594;2022-11-23T05:55:15;94056.88;;;9.23;87.88
23172;BME280;11754;42.664;23.594;2022-11-23T05:57:41;94062.44;;;9.34;86.70
23172;BME280;11754;42.664;23.594;2022-11-23T06:00:07;94065.28;;;9.39;85.83
23172;BME280;11754;42.664;23.594;2022-11-23T06:02:37;94053.25;;;9.24;86.08
23172;BME280;11754;42.664;23.594;2022-11-23T06:05:02;94065.69;;;9.36;86.00
23172;BME280;11754;42.664;23.594;2022-11-23T06:07:28;94067.53;;;9.43;85.76
23172;BME280;11754;42.664;23.594;2022-11-23T06:09:53;94072.44;;;9.46;86.00
23172;BME280;11754;42.664;23.594;2022-11-23T06:12:18;94075.28;;;9.51;85.67
23172;BME280;11754;42.664;23.594;2022-11-23T06:14:44;94076.91;;;9.52;85.57
23172;BME280;11754;42.664;23.594;2022-11-23T06:17:09;94055.25;;;9.50;85.43
23172;BME280;11754;42.664;23.594;2022-11-23T06:19:35;94069.50;;;9.69;84.98
23172;BME280;11754;42.664;23.594;2022-11-23T06:22:00;94073.03;;;9.82;84.07
23172;BME280;11754;42.664;23.594;2022-11-23T06:24:25;94079.97;;;9.97;83.48
23172;BME280;11754;42.664;23.594;2022-11-23T06:26:51;94066.72;;;9.83;83.66
23172;BME280;11754;42.664;23.594;2022-11-23T06:29:18;94083.63;;;9.96;84.14
23172;BME280;11754;42.664;23.594;2022-11-23T06:31:43;94086.91;;;10.11;83.80
23172;BME280;11754;42.664;23.594;2022-11-23T06:34:09;94094.72;;;10.32;82.84
23172;BME280;11754;42.664;23.594;2022-11-23T06:36:34;94085.84;;;10.47;82.63
23172;BME280;11754;42.664;23.594;2022-11-23T06:38:59;94086.66;;;10.54;82.40
23172;BME280;11754;42.664;23.594;2022-11-23T06:41:25;94088.31;;;10.68;82.01
23172;BME280;11754;42.664;23.594;2022-11-23T06:43:50;94083.88;;;10.75;81.58
23172;BME280;11754;42.664;23.594;2022-11-23T06:46:16;94085.91;;;10.93;81.05
23172;BME280;11754;42.664;23.594;2022-11-23T06:48:43;94087.53;;;11.07;80.13
23172;BME280;11754;42.664;23.594;2022-11-23T06:51:09;94084.28;;;11.05;79.26
23172;BME280;11754;42.664;23.594;2022-11-23T06:53:34;94077.38;;;11.18;78.94
23172;BME280;11754;42.664;23.594;2022-11-23T06:56:00;94092.81;;;11.27;78.65
23172;BME280;11754;42.664;23.594;2022-11-23T06:58:26;94078.19;;;11.31;77.62
23172;BME280;11754;42.664;23.594;2022-11-23T07:00:51;94092.81;;;11.41;77.70
23172;BME280;11754;42.664;23.594;2022-11-23T07:03:22;94088.31;;;11.48;76.71
23172;BME280;11754;42.664;23.594;2022-11-23T07:05:47;94083.03;;;11.48;76.47
23172;BME280;11754;42.664;23.594;2022-11-23T07:08:13;94098.06;;;11.54;76.08
23172;BME280;11754;42.664;23.594;2022-11-23T07:10:39;94077.34;;;11.51;75.95
23172;BME280;11754;42.664;23.594;2022-11-23T07:13:05;94081.84;;;11.44;76.45
23172;BME280;11754;42.664;23.594;2022-11-23T07:15:31;94084.47;;;11.44;76.45
23172;BME280;11754;42.664;23.594;2022-11-23T07:17:57;94078.75;;;11.53;76.46
23172;BME280;11754;42.664;23.594;2022-11-23T07:20:22;94077.75;;;11.54;76.01
23172;BME280;11754;42.664;23.594;2022-11-23T07:22:58;94074.88;;;11.69;75.87
23172;BME280;11754;42.664;23.594;2022-11-23T07:25:24;94089.06;;;11.95;74.69
23172;BME280;11754;42.664;23.594;2022-11-23T07:27:55;94079.28;;;12.02;73.71
23172;BME280;11754;42.664;23.594;2022-11-23T07:30:20;94088.81;;;12.03;74.62
23172;BME280;11754;42.664;23.594;2022-11-23T07:32:46;94084.03;;;12.32;73.85
23172;BME280;11754;42.664;23.594;2022-11-23T07:35:11;94076.25;;;12.37;73.36
23172;BME280;11754;42.664;23.594;2022-11-23T07:37:37;94090.03;;;12.52;73.10
23172;BME280;11754;42.664;23.594;2022-11-23T07:40:03;94083.06;;;12.58;72.22
23172;BME280;11754;42.664;23.594;2022-11-23T07:42:28;94084.84;;;12.70;72.04
23172;BME280;11754;42.664;23.594;2022-11-23T07:44:53;94080.22;;;12.91;71.94
23172;BME280;11754;42.664;23.594;2022-11-23T07:47:19;94078.72;;;13.02;70.86
23172;BME280;11754;42.664;23.594;2022-11-23T07:49:44;94080.88;;;13.11;70.94
23172;BME280;11754;42.664;23.594;2022-11-23T07:52:09;94072.75;;;13.38;70.47
23172;BME280;11754;42.664;23.594;2022-11-23T07:54:35;94072.44;;;13.28;69.92
23172;BME280;11754;42.664;23.594;2022-11-23T07:57:00;94059.50;;;13.38;69.25
23172;BME280;11754;42.664;23.594;2022-11-23T07:59:25;94060.69;;;13.24;70.06
23172;BME280;11754;42.664;23.594;2022-11-23T08:01:51;94077.19;;;13.44;70.29
23172;BME280;11754;42.664;23.594;2022-11-23T08:04:16;94094.13;;;13.61;68.95
23172;BME280;11754;42.664;23.594;2022-11-23T08:06:41;94080.78;;;13.75;68.60
23172;BME280;11754;42.664;23.594;2022-11-23T08:09:07;94089.78;;;13.92;68.86
23172;BME280;11754;42.664;23.594;2022-11-23T08:11:32;94099.19;;;14.25;67.68
23172;BME280;11754;42.664;23.594;2022-11-23T08:13:58;94099.44;;;14.72;65.29
23172;BME280;11754;42.664;23.594;2022-11-23T08:16:23;94083.25;;;14.61;64.76
23172;BME280;11754;42.664;23.594;2022-11-23T08:18:48;94084.38;;;14.35;65.43
23172;BME280;11754;42.664;23.594;2022-11-23T08:21:15;94071.00;;;14.42;65.09
23172;BME280;11754;42.664;23.594;2022-11-23T08:23:40;94094.06;;;14.41;65.21
23172;BME280;11754;42.664;23.594;2022-11-23T08:26:06;94094.66;;;14.43;65.32
23172;BME280;11754;42.664;23.594;2022-11-23T08:28:31;94076.94;;;14.26;65.88
23172;BME280;11754;42.664;23.594;2022-11-23T08:30:57;94078.97;;;14.42;66.29
23172;BME280;11754;42.664;23.594;2022-11-23T08:33:22;94073.31;;;14.99;65.90
23172;BME280;11754;42.664;23.594;2022-11-23T08:35:47;94071.66;;;15.98;62.47
23172;BME280;11754;42.664;23.594;2022-11-23T08:38:13;94079.69;;;16.27;58.70
23172;BME280;11754;42.664;23.594;2022-11-23T08:40:39;94087.97;;;16.42;58.89
23172;BME280;11754;42.664;23.594;2022-11-23T08:43:04;94073.00;;;17.94;55.28
23172;BME280;11754;42.664;23.594;2022-11-23T08:45:30;94068.78;;;19.40;50.29
23172;BME280;11754;42.664;23.594;2022-11-23T08:48:02;94055.97;;;20.27;46.50
23172;BME280;11754;42.664;23.594;2022-11-23T08:50:28;94053.47;;;20.68;45.72
23172;BME280;11754;42.664;23.594;2022-11-23T08:52:58;94058.13;;;21.85;42.93
23172;BME280;11754;42.664;23.594;2022-11-23T08:55:27;94064.59;;;23.97;39.15
23172;BME280;11754;42.664;23.594;2022-11-23T08:57:57;94045.03;;;25.26;35.29
23172;BME280;11754;42.664;23.594;2022-11-23T09:00:24;94047.53;;;26.34;33.68
23172;BME280;11754;42.664;23.594;2022-11-23T09:02:49;94029.72;;;26.88;32.58
23172;BME280;11754;42.664;23.594;2022-11-23T09:05:15;94043.75;;;27.85;31.06
23172;BME280;11754;42.664;23.594;2022-11-23T09:07:40;94025.94;;;27.48;30.92
23172;BME280;11754;42.664;23.594;2022-11-23T09:10:06;94026.56;;;29.18;28.60
23172;BME280;11754;42.664;23.594;2022-11-23T09:12:32;94036.78;;;31.14;26.23
23172;BME280;11754;42.664;23.594;2022-11-23T09:14:57;94037.31;;;32.24;23.98
23172;BME280;11754;42.664;23.594;2022-11-23T09:17:22;94036.19;;;33.48;22.94
23172;BME280;11754;42.664;23.594;2022-11-23T09:19:48;94026.28;;;34.91;21.27
23172;BME280;11754;42.664;23.594;2022-11-23T09:22:14;94018.34;;;36.34;20.39
23172;BME280;11754;42.664;23.594;2022-11-23T09:24:39;94017.97;;;37.61;19.48
23172;BME280;11754;42.664;23.594;2022-11-23T09:27:05;94010.88;;;37.90;18.31
23172;BME280;11754;42.664;23.594;2022-11-23T09:29:30;94004.13;;;38.59;17.57
23172;BME280;11754;42.664;23.594;2022-11-23T09:31:55;94002.44;;;38.43;17.20
23172;BME280;11754;42.664;23.594;2022-11-23T09:34:21;93998.47;;;39.40;16.87
23172;BME280;11754;42.664;23.594;2022-11-23T09:36:47;93987.09;;;38.90;16.80
23172;BME280;11754;42.664;23.594;2022-11-23T09:39:13;93981.38;;;39.94;16.03
23172;BME280;11754;42.664;23.594;2022-11-23T09:52:18;93968.75;;;44.34;12.41
23172;BME280;11754;42.664;23.594;2022-11-23T09:54:46;93972.75;;;44.02;12.51
23172;BME280;11754;42.664;23.594;2022-11-23T09:57:16;93951.84;;;44.21;12.36
23172;BME280;11754;42.664;23.594;2022-11-23T09:59:53;93966.91;;;43.97;12.63
23172;BME280;11754;42.664;23.594;2022-11-23T10:02:23;93966.13;;;43.93;12.75
23172;BME280;11754;42.664;23.594;2022-11-23T10:04:53;93965.22;;;43.31;13.21
23172;BME280;11754;42.664;23.594;2022-11-23T10:07:33;93940.69;;;43.98;12.95
23172;BME280;11754;42.664;23.594;2022-11-23T10:10:15;93946.16;;;43.71;12.70
23172;BME280;11754;42.664;23.594;2022-11-23T10:15:38;93939.19;;;42.20;13.57
23172;BME280;11754;42.664;23.594;2022-11-23T10:20:58;93947.56;;;44.17;12.11
23172;BME280;11754;42.664;23.594;2022-11-23T10:23:42;93939.41;;;44.33;12.15
23172;BME280;11754;42.664;23.594;2022-11-23T10:26:14;93926.59;;;45.73;11.83
23172;BME280;11754;42.664;23.594;2022-11-23T10:28:40;93941.41;;;46.26;10.72
23172;BME280;11754;42.664;23.594;2022-11-23T10:31:15;93931.69;;;45.78;11.23
23172;BME280;11754;42.664;23.594;2022-11-23T10:36:45;93925.31;;;41.50;13.72
23172;BME280;11754;42.664;23.594;2022-11-23T10:41:43;93930.53;;;43.84;12.19
23172;BME280;11754;42.664;23.594;2022-11-23T10:46:50;93944.22;;;45.26;11.43
23172;BME280;11754;42.664;23.594;2022-11-23T10:54:28;93934.03;;;44.19;11.25
23172;BME280;11754;42.664;23.594;2022-11-23T10:56:56;93927.72;;;39.95;13.29
23172;BME280;11754;42.664;23.594;2022-11-23T11:02:17;93940.56;;;36.26;16.29
23172;BME280;11754;42.664;23.594;2022-11-23T11:04:43;93949.34;;;33.85;17.88
23172;BME280;11754;42.664;23.594;2022-11-23T11:07:25;93961.19;;;31.53;19.58
23172;BME280;11754;42.664;23.594;2022-11-23T11:09:59;93965.56;;;29.24;22.67
23172;BME280;11754;42.664;23.594;2022-11-23T11:12:32;93960.72;;;26.77;25.56
23172;BME280;11754;42.664;23.594;2022-11-23T11:17:37;93978.22;;;24.61;25.53
23172;BME280;11754;42.664;23.594;2022-11-23T11:20:28;93991.22;;;23.23;30.91
23172;BME280;11754;42.664;23.594;2022-11-23T11:23:00;93987.22;;;22.12;31.46
23172;BME280;11754;42.664;23.594;2022-11-23T11:34:17;93975.72;;;25.40;27.95
23172;BME280;11754;42.664;23.594;2022-11-23T11:39:33;93980.03;;;24.47;29.00
23172;BME280;11754;42.664;23.594;2022-11-23T11:42:04;93981.50;;;24.77;26.68
23172;BME280;11754;42.664;23.594;2022-11-23T11:44:32;93981.19;;;23.92;27.77
23172;BME280;11754;42.664;23.594;2022-11-23T11:47:04;93963.13;;;23.35;29.83
23172;BME280;11754;42.664;23.594;2022-11-23T11:49:42;93947.56;;;23.61;30.07
23172;BME280;11754;42.664;23.594;2022-11-23T11:52:14;93952.13;;;24.13;30.49
23172;BME280;11754;42.664;23.594;2022-11-23T11:55:10;93960.84;;;23.81;30.16
23172;BME280;11754;42.664;23.594;2022-11-23T11:57:48;93963.78;;;22.82;29.92
23172;BME280;11754;42.664;23.594;2022-11-23T12:00:18;93962.16;;;21.51;32.01
23172;BME280;11754;42.664;23.594;2022-11-23T12:05:48;93981.91;;;19.85;35.67
23172;BME280;11754;42.664;23.594;2022-11-23T12:10:49;93991.19;;;18.98;38.27
23172;BME280;11754;42.664;23.594;2022-11-23T12:13:22;93991.84;;;18.83;39.96
23172;BME280;11754;42.664;23.594;2022-11-23T12:15:54;93990.38;;;18.98;40.63
23172;BME280;11754;42.664;23.594;2022-11-23T12:18:27;94004.19;;;18.89;41.68
23172;BME280;11754;42.664;23.594;2022-11-23T12:27:05;93978.47;;;18.29;42.99
23172;BME280;11754;42.664;23.594;2022-11-23T12:32:08;93982.91;;;18.45;43.01
23172;BME280;11754;42.664;23.594;2022-11-23T12:38:03;93988.75;;;18.96;40.81
23172;BME280;11754;42.664;23.594;2022-11-23T12:43:21;93974.66;;;21.97;33.49
23172;BME280;11754;42.664;23.594;2022-11-23T12:57:30;93978.69;;;23.09;30.19
23172;BME280;11754;42.664;23.594;2022-11-23T13:00:05;93962.78;;;28.15;23.04
23172;BME280;11754;42.664;23.594;2022-11-23T13:11:20;93961.06;;;36.09;15.40
23172;BME280;11754;42.664;23.594;2022-11-23T13:21:40;93961.81;;;30.66;19.03
23172;BME280;11754;42.664;23.594;2022-11-23T13:34:59;93983.22;;;22.64;28.70
23172;BME280;11754;42.664;23.594;2022-11-23T13:37:25;93985.91;;;21.99;29.76
23172;BME280;11754;42.664;23.594;2022-11-23T13:42:23;93989.84;;;27.52;23.18
23172;BME280;11754;42.664;23.594;2022-11-23T13:45:15;93993.13;;;28.91;20.83
23172;BME280;11754;42.664;23.594;2022-11-23T13:50:33;94008.16;;;24.59;25.12
23172;BME280;11754;42.664;23.594;2022-11-23T13:52:59;94008.34;;;22.88;27.55
23172;BME280;11754;42.664;23.594;2022-11-23T13:55:36;94002.84;;;21.84;29.00
23172;BME280;11754;42.664;23.594;2022-11-23T13:58:32;94021.16;;;21.41;29.81
23172;BME280;11754;42.664;23.594;2022-11-23T14:01:00;94018.16;;;21.12;30.51
23172;BME280;11754;42.664;23.594;2022-11-23T14:03:45;94018.69;;;20.94;30.66
23172;BME280;11754;42.664;23.594;2022-11-23T14:06:41;94026.72;;;20.83;31.47
23172;BME280;11754;42.664;23.594;2022-11-23T14:11:51;94022.97;;;19.64;33.38
23172;BME280;11754;42.664;23.594;2022-11-23T14:14:22;94032.72;;;19.48;33.66
23172;BME280;11754;42.664;23.594;2022-11-23T14:30:56;94046.84;;;16.90;38.71
23172;BME280;11754;42.664;23.594;2022-11-23T14:33:33;94044.50;;;16.65;39.76
23172;BME280;11754;42.664;23.594;2022-11-23T14:36:12;94045.75;;;16.46;40.26
23172;BME280;11754;42.664;23.594;2022-11-23T14:41:18;94033.91;;;16.25;39.59
23172;BME280;11754;42.664;23.594;2022-11-23T14:43:45;94040.06;;;16.14;41.43
23172;BME280;11754;42.664;23.594;2022-11-23T14:46:17;94044.78;;;16.12;41.54
23172;BME280;11754;42.664;23.594;2022-11-23T14:48:44;94048.50;;;16.10;41.29
23172;BME280;11754;42.664;23.594;2022-11-23T14:51:23;94046.22;;;16.02;40.82
23172;BME280;11754;42.664;23.594;2022-11-23T14:54:01;94045.41;;;16.02;41.55
23172;BME280;11754;42.664;23.594;2022-11-23T14:56:40;94045.53;;;15.95;41.28
23172;BME280;11754;42.664;23.594;2022-11-23T14:59:46;94043.25;;;15.87;41.34
23172;BME280;11754;42.664;23.594;2022-11-23T15:02:31;94047.38;;;15.59;41.22
23172;BME280;11754;42.664;23.594;2022-11-23T15:05:15;94045.19;;;15.56;41.34
23172;BME280;11754;42.664;23.594;2022-11-23T15:08:01;94047.97;;;15.50;41.29
23172;BME280;11754;42.664;23.594;2022-11-23T15:12:54;94050.63;;;15.38;41.67
23172;BME280;11754;42.664;23.594;2022-11-23T15:15:25;94032.59;;;15.17;41.56